createdAt,value
2024-03-02T00:01:15.960Z,8.77
2024-03-02T00:03:44.729Z,8.98
2024-03-02T00:06:12.058Z,8.27
2024-03-02T00:08:43.370Z,9.35
2024-03-02T00:11:15.324Z,9.13
2024-03-02T00:13:42.719Z,9.18
2024-03-02T00:16:09.935Z,9.63
2024-03-02T00:18:38.027Z,8.65
2024-03-02T00:21:12.778Z,9.88
2024-03-02T00:23:40.801Z,9.35
2024-03-02T00:26:12.739Z,10.35
2024-03-02T00:28:41.685Z,10.00
2024-03-02T00:31:13.002Z,9.70
2024-03-02T00:33:46.701Z,10.75
2024-03-02T00:36:22.517Z,10.00
2024-03-02T00:38:56.098Z,11.45
2024-03-02T00:41:25.550Z,10.00
2024-03-02T00:44:02.107Z,10.27
2024-03-02T00:46:38.949Z,10.55
2024-03-02T00:49:27.767Z,9.60
2024-03-02T00:51:57.376Z,9.43
2024-03-02T00:56:59.380Z,10.45
2024-03-02T00:59:26.685Z,11.48
2024-03-02T01:01:53.954Z,9.98
2024-03-02T01:04:25.319Z,10.82
2024-03-02T01:06:52.548Z,11.38
2024-03-02T01:09:20.340Z,10.68
2024-03-02T01:11:53.814Z,10.15
2024-03-02T01:14:23.110Z,10.05
2024-03-02T01:16:50.550Z,10.75
2024-03-02T01:19:22.040Z,10.82
2024-03-02T01:21:49.326Z,11.80
2024-03-02T01:24:16.625Z,10.98
2024-03-02T01:26:48.064Z,9.32
2024-03-02T01:29:17.272Z,10.27
2024-03-02T01:31:44.446Z,11.43
2024-03-02T01:34:14.001Z,11.82
2024-03-02T01:36:43.330Z,11.30
2024-03-02T01:39:10.872Z,10.73
2024-03-02T01:41:40.392Z,10.75
2024-03-02T01:44:10.009Z,10.43
2024-03-02T01:46:39.169Z,9.65
2024-03-02T01:49:07.237Z,10.68
2024-03-02T01:51:34.651Z,10.15
2024-03-02T01:54:04.176Z,9.75
2024-03-02T01:56:31.433Z,9.82
2024-03-02T01:58:58.562Z,10.10
2024-03-02T02:01:27.985Z,10.45
2024-03-02T02:03:57.265Z,10.15
2024-03-02T02:06:24.630Z,9.27
2024-03-02T02:08:51.956Z,11.57
2024-03-02T02:11:23.276Z,8.63
2024-03-02T02:13:50.498Z,8.80
2024-03-02T02:16:19.763Z,10.13
2024-03-02T02:18:51.216Z,9.75
2024-03-02T02:21:23.976Z,8.88
2024-03-02T02:23:51.568Z,9.38
2024-03-02T02:30:38.439Z,10.55
2024-03-02T02:33:06.903Z,9.25
2024-03-02T02:35:34.301Z,9.70
2024-03-02T02:38:02.091Z,10.32
2024-03-02T02:40:33.984Z,9.85
2024-03-02T02:43:01.562Z,10.27
2024-03-02T02:45:28.894Z,10.05
2024-03-02T02:47:56.563Z,9.57
2024-03-02T02:50:25.711Z,10.13
2024-03-02T02:52:52.932Z,9.38
2024-03-02T02:55:22.335Z,9.00
2024-03-02T02:57:51.715Z,9.27
2024-03-02T03:00:21.307Z,8.90
2024-03-02T03:05:20.769Z,10.23
2024-03-02T03:10:23.287Z,10.45
2024-03-02T03:12:50.748Z,8.70
2024-03-02T03:15:20.124Z,8.07
2024-03-02T03:17:48.695Z,9.30
2024-03-02T03:20:18.283Z,9.00
2024-03-02T03:22:45.586Z,9.15
2024-03-02T03:25:14.795Z,9.05
2024-03-02T03:27:43.114Z,8.30
2024-03-02T03:30:12.862Z,8.60
2024-03-02T03:35:07.861Z,8.60
2024-03-02T03:37:37.393Z,7.43
2024-03-02T03:40:12.825Z,9.13
2024-03-02T03:42:40.882Z,10.20
2024-03-02T03:45:08.660Z,8.55
2024-03-02T03:47:36.115Z,10.10
2024-03-02T03:50:09.075Z,9.85
2024-03-02T03:52:38.245Z,9.68
2024-03-02T03:55:06.864Z,9.40
2024-03-02T03:57:38.554Z,10.47
2024-03-02T04:00:06.462Z,10.60
2024-03-02T04:02:44.008Z,11.65
2024-03-02T04:05:12.637Z,9.55
2024-03-02T04:07:44.213Z,8.90
2024-03-02T04:10:15.928Z,8.55
2024-03-02T04:12:45.056Z,8.63
2024-03-02T04:15:12.242Z,8.65
2024-03-02T04:17:41.742Z,9.43
2024-03-02T04:20:13.750Z,8.88
2024-03-02T04:22:40.995Z,8.65
2024-03-02T04:25:10.486Z,7.70
2024-03-02T04:27:39.782Z,9.25
2024-03-02T04:30:09.435Z,7.95
2024-03-02T04:35:09.500Z,8.68
2024-03-02T04:37:42.791Z,9.10
2024-03-02T04:40:10.582Z,8.65
2024-03-02T04:42:37.931Z,9.02
2024-03-02T04:45:11.652Z,8.70
2024-03-02T04:47:38.868Z,8.95
2024-03-02T04:50:07.055Z,9.88
2024-03-02T04:52:34.294Z,8.38
2024-03-02T04:55:20.292Z,9.88
2024-03-02T04:57:54.107Z,9.60
2024-03-02T05:00:23.497Z,8.48
2024-03-02T05:02:51.046Z,9.93
2024-03-02T05:05:22.012Z,8.18
2024-03-02T05:07:51.039Z,8.50
2024-03-02T05:10:18.159Z,10.07
2024-03-02T05:12:47.390Z,10.32
2024-03-02T05:15:16.878Z,9.07
2024-03-02T05:17:46.514Z,10.55
2024-03-02T05:22:43.227Z,9.23
2024-03-02T05:25:12.503Z,10.70
2024-03-02T05:27:41.806Z,10.50
2024-03-02T05:30:10.071Z,10.00
2024-03-02T05:32:37.242Z,10.38
2024-03-02T05:35:06.486Z,11.35
2024-03-02T05:37:33.803Z,11.15
2024-03-02T05:40:01.186Z,10.60
2024-03-02T05:42:32.393Z,9.50
2024-03-02T05:44:59.666Z,11.27
2024-03-02T05:47:26.940Z,10.50
2024-03-02T05:49:58.174Z,9.35
2024-03-02T05:52:27.351Z,10.27
2024-03-02T05:54:54.603Z,11.52
2024-03-02T05:57:42.394Z,9.52
2024-03-02T06:00:12.221Z,9.77
2024-03-02T06:02:42.217Z,9.82
2024-03-02T06:05:12.062Z,9.00
2024-03-02T06:10:13.765Z,9.98
2024-03-02T06:12:44.208Z,8.82
2024-03-02T06:15:12.196Z,9.43
2024-03-02T06:17:39.369Z,10.18
2024-03-02T06:20:11.462Z,11.05
2024-03-02T06:22:38.697Z,10.82
2024-03-02T06:25:08.444Z,10.93
2024-03-02T06:27:35.919Z,9.30
2024-03-02T06:30:05.135Z,10.70
2024-03-02T06:32:32.631Z,8.90
2024-03-02T06:35:03.784Z,9.45
2024-03-02T06:37:31.040Z,10.40
2024-03-02T06:39:58.449Z,9.52
2024-03-02T06:42:29.617Z,9.38
2024-03-02T06:44:57.204Z,10.13
2024-03-02T06:47:24.336Z,11.05
2024-03-02T06:49:54.011Z,11.02
2024-03-02T06:52:24.886Z,10.18
2024-03-02T06:54:52.664Z,11.00
2024-03-02T06:57:21.851Z,9.88
2024-03-02T06:59:51.536Z,9.85
2024-03-02T07:02:21.221Z,9.27
2024-03-02T07:07:15.491Z,11.52
2024-03-02T07:09:42.771Z,11.95
2024-03-02T07:12:10.142Z,10.85
2024-03-02T07:14:56.728Z,10.50
2024-03-02T07:17:30.174Z,12.18
2024-03-02T07:19:57.734Z,11.18
2024-03-02T07:22:25.117Z,13.18
2024-03-02T07:24:56.368Z,11.48
2024-03-02T07:27:25.824Z,13.70
2024-03-02T07:29:53.006Z,11.82
2024-03-02T07:32:20.415Z,10.90
2024-03-02T07:34:47.515Z,12.77
2024-03-02T07:37:14.737Z,9.90
2024-03-02T07:39:42.295Z,11.95
2024-03-02T07:42:09.552Z,12.05
2024-03-02T07:44:37.537Z,11.00
2024-03-02T07:47:06.160Z,11.05
2024-03-02T07:49:33.366Z,11.45
2024-03-02T07:52:00.637Z,10.70
2024-03-02T07:54:31.851Z,11.95
2024-03-02T07:57:01.214Z,10.50
2024-03-02T07:59:28.419Z,10.07
2024-03-02T08:01:58.584Z,10.98
2024-03-02T08:04:27.886Z,11.90
2024-03-02T08:06:56.015Z,10.93
2024-03-02T08:09:25.356Z,10.18
2024-03-02T08:11:58.997Z,11.45
2024-03-02T08:14:26.531Z,11.63
2024-03-02T08:16:53.732Z,10.35
2024-03-02T08:19:23.657Z,9.75
2024-03-02T08:21:51.186Z,11.55
2024-03-02T08:24:19.757Z,11.27
2024-03-02T08:26:53.881Z,10.38
2024-03-02T08:29:23.092Z,9.80
2024-03-02T08:31:50.626Z,11.82
2024-03-02T08:34:19.980Z,11.10
2024-03-02T08:36:49.489Z,11.70
2024-03-02T08:39:17.223Z,10.35
2024-03-02T08:41:48.577Z,11.05
2024-03-02T08:44:17.892Z,9.65
2024-03-02T08:46:45.427Z,9.43
2024-03-02T08:49:15.360Z,9.73
2024-03-02T08:51:42.551Z,8.48
2024-03-02T08:54:10.054Z,9.82
2024-03-02T08:56:39.363Z,9.73
2024-03-02T08:59:08.509Z,8.88
2024-03-02T09:01:35.906Z,9.85
2024-03-02T09:04:07.295Z,9.25
2024-03-02T09:06:34.588Z,8.70
2024-03-02T09:09:01.844Z,8.77
2024-03-02T09:11:31.352Z,8.70
2024-03-02T09:13:58.991Z,8.20
2024-03-02T09:19:01.978Z,8.60
2024-03-02T09:21:31.580Z,9.43
2024-03-02T09:23:59.114Z,9.30
2024-03-02T09:26:26.388Z,9.00
2024-03-02T09:28:54.017Z,7.53
2024-03-02T09:31:21.524Z,9.32
2024-03-02T09:33:48.814Z,8.40
2024-03-02T09:36:20.364Z,9.35
2024-03-02T09:38:48.096Z,8.15
2024-03-02T09:41:20.658Z,8.05
2024-03-02T09:43:48.101Z,9.35
2024-03-02T09:46:16.491Z,8.30
2024-03-02T09:48:48.156Z,7.63
2024-03-02T09:51:16.583Z,9.13
2024-03-02T09:53:44.266Z,9.07
2024-03-02T09:56:15.731Z,7.65
2024-03-02T09:58:43.511Z,8.38
2024-03-02T10:01:11.354Z,7.85
2024-03-02T10:03:44.288Z,8.35
2024-03-02T10:06:37.742Z,8.05
2024-03-02T10:09:05.113Z,8.75
2024-03-02T10:11:36.486Z,9.30
2024-03-02T10:14:12.018Z,7.28
2024-03-02T10:16:43.799Z,7.57
2024-03-02T10:19:21.540Z,8.23
2024-03-02T10:24:22.131Z,7.88
2024-03-02T10:26:52.087Z,8.55
2024-03-02T10:29:21.673Z,8.77
2024-03-02T10:31:48.833Z,8.25
2024-03-02T10:34:19.337Z,7.47
2024-03-02T10:36:47.345Z,8.00
2024-03-02T10:39:15.776Z,7.95
2024-03-02T10:41:43.328Z,7.30
2024-03-02T10:44:12.831Z,7.30
2024-03-02T10:46:40.256Z,6.28
2024-03-02T10:49:08.980Z,6.20
2024-03-02T10:51:39.044Z,6.80
2024-03-02T10:54:07.543Z,5.40
2024-03-02T10:56:42.089Z,6.07
2024-03-02T10:59:19.613Z,5.03
2024-03-02T11:01:51.217Z,5.60
2024-03-02T11:04:20.683Z,4.75
2024-03-02T11:06:52.574Z,5.03
2024-03-02T11:09:26.969Z,5.53
2024-03-02T11:12:05.055Z,5.82
2024-03-02T11:14:34.528Z,4.75
2024-03-02T11:17:04.753Z,4.45
2024-03-02T11:19:35.311Z,4.90
2024-03-02T11:22:05.000Z,4.18
2024-03-02T11:27:09.782Z,4.65
2024-03-02T11:29:37.034Z,4.55
2024-03-02T11:32:05.713Z,3.72
2024-03-02T11:34:42.595Z,4.82
2024-03-02T11:37:11.480Z,4.30
2024-03-02T11:39:40.552Z,4.93
2024-03-02T11:42:14.033Z,4.88
2024-03-02T11:44:44.468Z,5.20
2024-03-02T11:47:15.508Z,4.20
2024-03-02T11:49:51.364Z,3.42
2024-03-02T11:52:19.551Z,4.68
2024-03-02T11:54:48.163Z,3.80
2024-03-02T11:57:17.789Z,2.67
2024-03-02T11:59:47.493Z,3.03
2024-03-02T12:04:49.672Z,2.17
2024-03-02T12:07:23.531Z,2.10
2024-03-02T12:10:11.565Z,2.45
2024-03-02T12:12:38.934Z,2.60
2024-03-02T12:15:08.503Z,2.08
2024-03-02T12:17:35.888Z,2.53
2024-03-02T12:20:05.078Z,3.25
2024-03-02T12:22:38.505Z,3.65
2024-03-02T12:25:08.489Z,4.20
2024-03-02T12:27:37.185Z,3.85
2024-03-02T12:30:05.773Z,4.45
2024-03-02T12:32:35.665Z,3.80
2024-03-02T12:37:30.125Z,3.70
2024-03-02T12:39:57.341Z,3.38
2024-03-02T12:42:26.310Z,3.40
2024-03-02T12:44:58.682Z,3.30
2024-03-02T12:47:26.046Z,3.15
2024-03-02T12:49:53.775Z,2.75
2024-03-02T12:52:23.089Z,2.88
2024-03-02T12:54:53.906Z,3.92
2024-03-02T12:57:21.186Z,3.38
2024-03-02T12:59:48.911Z,3.17
2024-03-02T13:02:20.151Z,3.60
2024-03-02T13:04:59.165Z,2.85
2024-03-02T13:07:28.757Z,3.03
2024-03-02T13:09:57.142Z,2.90
2024-03-02T13:12:26.546Z,3.22
2024-03-02T13:14:54.170Z,3.00
2024-03-02T13:17:22.101Z,2.83
2024-03-02T13:20:02.345Z,3.50
2024-03-02T13:22:29.622Z,3.55
2024-03-02T13:25:01.077Z,3.42
2024-03-02T13:27:29.948Z,2.67
2024-03-02T13:29:57.152Z,1.52
2024-03-02T13:32:25.592Z,1.92
2024-03-02T13:34:56.933Z,1.70
2024-03-02T13:37:24.130Z,1.92
2024-03-02T13:39:51.614Z,1.95
2024-03-02T13:42:23.059Z,1.70
2024-03-02T13:44:53.621Z,1.60
2024-03-02T13:47:22.359Z,1.73
2024-03-02T13:49:52.208Z,1.38
2024-03-02T13:52:21.777Z,1.45
2024-03-02T13:54:49.636Z,1.25
2024-03-02T13:57:25.250Z,2.65
2024-03-02T13:59:56.472Z,6.78
2024-03-02T14:02:25.682Z,1.90
2024-03-02T14:04:53.003Z,13.75
2024-03-02T14:07:22.298Z,8.60
2024-03-02T14:09:51.735Z,2.67
2024-03-02T14:12:19.176Z,2.17
2024-03-02T14:14:48.409Z,2.00
2024-03-02T14:17:17.528Z,2.17
2024-03-02T14:19:45.375Z,1.08
2024-03-02T14:22:15.081Z,1.10
2024-03-02T14:24:47.158Z,1.08
2024-03-02T14:27:25.672Z,1.08
2024-03-02T14:30:04.380Z,1.35
2024-03-02T14:32:33.822Z,1.10
2024-03-02T14:35:01.000Z,4.93
2024-03-02T14:37:30.256Z,1.83
2024-03-02T14:39:58.176Z,1.10
2024-03-02T14:42:25.869Z,0.90
2024-03-02T14:44:55.086Z,1.10
2024-03-02T14:47:22.330Z,1.27
2024-03-02T14:49:49.518Z,0.73
2024-03-02T14:52:18.693Z,0.80
2024-03-02T14:54:45.875Z,0.73
2024-03-02T14:57:13.314Z,0.68
2024-03-02T14:59:40.468Z,0.98
2024-03-02T15:02:10.224Z,0.57
2024-03-02T15:07:07.096Z,0.80
2024-03-02T15:12:04.548Z,0.70
2024-03-02T15:14:33.869Z,0.68
2024-03-02T15:17:03.558Z,0.70
2024-03-02T15:19:31.009Z,0.88
2024-03-02T15:22:00.346Z,1.00
2024-03-02T15:24:27.619Z,0.98
2024-03-02T15:26:58.470Z,0.93
2024-03-02T15:29:30.773Z,0.70
2024-03-02T15:32:00.323Z,0.80
2024-03-02T15:34:27.643Z,0.90
2024-03-02T15:36:57.163Z,0.80
2024-03-02T15:39:26.346Z,0.70
2024-03-02T15:41:54.030Z,1.27
2024-03-02T15:44:21.387Z,1.08
2024-03-02T15:46:50.645Z,0.93
2024-03-02T15:49:21.262Z,0.93
2024-03-02T15:51:51.136Z,0.68
2024-03-02T15:54:18.425Z,1.00
2024-03-02T15:56:45.724Z,0.77
2024-03-02T15:59:15.091Z,0.98
2024-03-02T16:01:44.554Z,0.60
2024-03-02T16:06:41.418Z,0.93
2024-03-02T16:09:11.512Z,1.23
2024-03-02T16:11:41.850Z,1.10
2024-03-02T16:14:11.335Z,1.02
2024-03-02T16:16:38.540Z,0.75
2024-03-02T16:19:11.396Z,1.00
2024-03-02T16:21:48.440Z,0.80
2024-03-02T16:24:15.864Z,1.50
2024-03-02T16:26:43.001Z,1.77
2024-03-02T16:29:14.288Z,1.08
2024-03-02T16:31:43.620Z,1.42
2024-03-02T16:34:13.548Z,1.10
2024-03-02T16:36:47.697Z,1.60
2024-03-02T16:39:16.190Z,1.67
2024-03-02T16:41:49.855Z,1.65
2024-03-02T16:44:19.145Z,1.45
2024-03-02T16:46:47.587Z,1.35
2024-03-02T16:49:16.608Z,1.30
2024-03-02T16:51:47.957Z,1.30
2024-03-02T16:54:15.236Z,0.90
2024-03-02T16:56:46.135Z,1.27
2024-03-02T16:59:13.435Z,1.10
2024-03-02T17:01:40.741Z,0.70
2024-03-02T17:04:09.354Z,0.90
2024-03-02T17:06:38.701Z,1.17
2024-03-02T17:09:07.320Z,1.33
2024-03-02T17:11:37.090Z,1.20
2024-03-02T17:14:06.423Z,1.10
2024-03-02T17:16:33.579Z,1.40
2024-03-02T17:19:03.048Z,0.88
2024-03-02T17:21:33.789Z,1.15
2024-03-02T17:24:03.819Z,1.42
2024-03-02T17:29:01.120Z,1.13
2024-03-02T17:31:28.504Z,1.20
2024-03-02T17:33:57.726Z,1.38
2024-03-02T17:36:27.385Z,1.40
2024-03-02T17:38:54.584Z,1.67
2024-03-02T17:41:21.870Z,1.25
2024-03-02T17:43:51.076Z,1.00
2024-03-02T17:46:20.387Z,1.42
2024-03-02T17:48:47.654Z,1.52
2024-03-02T17:51:19.336Z,1.58
2024-03-02T17:53:46.814Z,1.13
2024-03-02T17:56:14.045Z,1.48
2024-03-02T17:58:43.227Z,1.40
2024-03-02T18:01:18.899Z,1.20
2024-03-02T18:03:51.370Z,1.23
2024-03-02T18:06:19.427Z,1.63
2024-03-02T18:08:50.085Z,1.40
2024-03-02T18:11:19.258Z,1.35
2024-03-02T18:13:50.628Z,1.85
2024-03-02T18:16:18.812Z,1.58
2024-03-02T18:18:49.518Z,1.08
2024-03-02T18:21:16.913Z,1.60
2024-03-02T18:23:46.233Z,1.15
2024-03-02T18:26:13.486Z,1.65
2024-03-02T18:28:41.544Z,1.52
2024-03-02T18:31:10.852Z,1.50
2024-03-02T18:33:38.187Z,2.50
2024-03-02T18:36:09.267Z,1.88
2024-03-02T18:38:36.594Z,2.78
2024-03-02T18:41:04.109Z,2.17
2024-03-02T18:43:31.368Z,1.85
2024-03-02T18:46:01.092Z,1.55
2024-03-02T18:50:57.647Z,1.73
2024-03-02T18:53:26.894Z,1.55
2024-03-02T18:55:54.011Z,1.48
2024-03-02T18:58:24.609Z,1.90
2024-03-02T19:00:54.485Z,1.70
2024-03-02T19:03:22.327Z,1.63
2024-03-02T19:05:51.601Z,1.50
2024-03-02T19:08:20.589Z,1.52
2024-03-02T19:10:47.980Z,1.90
2024-03-02T19:13:15.402Z,1.67
2024-03-02T19:15:44.620Z,1.88
2024-03-02T19:18:11.942Z,1.40
2024-03-02T19:20:41.593Z,1.30
2024-03-02T19:23:18.696Z,1.80
2024-03-02T19:25:53.385Z,2.05
2024-03-02T19:28:20.803Z,1.85
2024-03-02T19:30:50.280Z,1.73
2024-03-02T19:35:49.137Z,1.73
2024-03-02T19:38:18.432Z,1.92
2024-03-02T19:40:49.759Z,2.35
2024-03-02T19:43:21.770Z,2.55
2024-03-02T19:45:49.210Z,2.38
2024-03-02T19:48:20.360Z,2.50
2024-03-02T19:50:49.020Z,2.47
2024-03-02T19:53:18.310Z,2.13
2024-03-02T19:55:45.774Z,2.00
2024-03-02T19:58:15.172Z,2.40
2024-03-02T20:00:42.630Z,2.22
2024-03-02T20:03:11.911Z,2.38
2024-03-02T20:05:41.488Z,2.90
2024-03-02T20:08:08.811Z,2.92
2024-03-02T20:10:36.456Z,3.05
2024-03-02T20:13:07.252Z,3.28
2024-03-02T20:15:34.668Z,3.13
2024-03-02T20:18:04.211Z,2.63
2024-03-02T20:20:33.652Z,2.95
2024-03-02T20:23:00.819Z,3.20
2024-03-02T20:25:30.122Z,3.33
2024-03-02T20:28:00.653Z,2.35
2024-03-02T20:30:29.904Z,2.33
2024-03-02T20:32:57.276Z,3.70
2024-03-02T20:35:24.523Z,2.80
2024-03-02T20:37:53.940Z,2.53
2024-03-02T20:40:21.189Z,2.28
2024-03-02T20:42:48.444Z,2.47
2024-03-02T20:45:19.853Z,3.47
2024-03-02T20:47:49.201Z,3.17
2024-03-02T20:50:16.656Z,3.50
2024-03-02T20:52:46.448Z,3.95
2024-03-02T20:57:45.362Z,4.60
2024-03-02T21:00:12.958Z,4.70
2024-03-02T21:02:44.554Z,4.13
2024-03-02T21:05:12.749Z,4.68
2024-03-02T21:07:40.015Z,4.45
2024-03-02T21:10:14.507Z,3.95
2024-03-02T21:12:42.590Z,3.88
2024-03-02T21:15:12.147Z,4.03
2024-03-02T21:17:41.496Z,4.28
2024-03-02T21:20:11.195Z,4.15
2024-03-02T21:22:39.775Z,4.93
2024-03-02T21:25:13.454Z,4.88
2024-03-02T21:27:42.907Z,5.50
2024-03-02T21:30:10.482Z,5.10
2024-03-02T21:32:39.658Z,5.03
2024-03-02T21:35:11.200Z,4.43
2024-03-02T21:37:38.453Z,4.05
2024-03-02T21:40:08.459Z,4.78
2024-03-02T21:42:37.829Z,4.07
2024-03-02T21:45:05.550Z,3.50
2024-03-02T21:50:05.590Z,2.97
2024-03-02T21:52:32.826Z,2.87
2024-03-02T21:55:02.127Z,2.65
2024-03-02T21:57:31.369Z,2.67
2024-03-02T21:59:58.765Z,2.55
2024-03-02T22:02:25.903Z,2.22
2024-03-02T22:04:55.196Z,3.28
2024-03-02T22:07:22.386Z,2.83
2024-03-02T22:09:51.611Z,2.95
2024-03-02T22:12:20.722Z,3.13
2024-03-02T22:14:47.958Z,3.00
2024-03-02T22:17:17.205Z,2.42
2024-03-02T22:19:46.474Z,2.67
2024-03-02T22:22:18.445Z,2.75
2024-03-02T22:24:47.803Z,3.25
2024-03-02T22:27:17.123Z,2.45
2024-03-02T22:29:44.380Z,2.50
2024-03-02T22:32:13.706Z,2.40
2024-03-02T22:34:43.098Z,2.25
2024-03-02T22:37:10.900Z,2.33
2024-03-02T22:39:38.152Z,2.28
2024-03-02T22:42:05.623Z,2.13
2024-03-02T22:44:35.581Z,2.17
2024-03-02T22:47:02.979Z,1.88
2024-03-02T22:49:32.456Z,2.65
2024-03-02T22:52:08.066Z,2.10
2024-03-02T22:54:35.570Z,2.33
2024-03-02T22:57:02.854Z,2.05
2024-03-02T22:59:30.069Z,2.25
2024-03-02T23:01:57.310Z,2.28
2024-03-02T23:04:26.545Z,2.50
2024-03-02T23:06:53.742Z,3.10
2024-03-02T23:09:23.031Z,2.45
2024-03-02T23:11:51.288Z,2.20
2024-03-02T23:14:20.724Z,3.20
2024-03-02T23:16:49.911Z,2.45
2024-03-02T23:19:21.970Z,3.05
2024-03-02T23:21:54.720Z,2.88
2024-03-02T23:24:23.982Z,2.55
2024-03-02T23:26:51.435Z,2.40
2024-03-02T23:29:20.302Z,1.85
2024-03-02T23:31:51.474Z,1.95
2024-03-02T23:34:18.774Z,1.90
2024-03-02T23:36:45.949Z,2.50
2024-03-02T23:39:37.130Z,2.88
2024-03-02T23:42:04.962Z,3.50
2024-03-02T23:44:34.149Z,2.88
2024-03-02T23:47:01.633Z,3.15
2024-03-02T23:49:28.864Z,2.92
2024-03-02T23:52:00.855Z,2.78
2024-03-02T23:54:28.206Z,3.78
2024-03-02T23:56:57.654Z,2.65
2024-03-02T23:59:24.896Z,4.05
